sensor_id;sensor_type;location;lat;lon;timestamp;P1;durP1;ratioP1;P2;durP2;ratioP2
18322;SDS011;9287;49.456;11.064;2023-04-12T00:01:32;4.13;;;1.30;;
18322;SDS011;9287;49.456;11.064;2023-04-12T00:04:01;4.30;;;1.50;;
18322;SDS011;9287;49.456;11.064;2023-04-12T00:06:30;5.47;;;1.20;;
18322;SDS011;9287;49.456;11.064;2023-04-12T00:08:58;3.80;;;1.47;;
18322;SDS011;9287;49.456;11.064;2023-04-12T00:11:26;2.77;;;1.03;;
18322;SDS011;9287;49.456;11.064;2023-04-12T00:13:54;2.60;;;1.10;;
18322;SDS011;9287;49.456;11.064;2023-04-12T00:16:23;3.77;;;1.20;;
18322;SDS011;9287;49.456;11.064;2023-04-12T00:18:50;3.23;;;1.20;;
18322;SDS011;9287;49.456;11.064;2023-04-12T00:21:19;3.13;;;1.33;;
18322;SDS011;9287;49.456;11.064;2023-04-12T00:23:49;2.63;;;1.40;;
18322;SDS011;9287;49.456;11.064;2023-04-12T00:26:16;3.83;;;1.40;;
18322;SDS011;9287;49.456;11.064;2023-04-12T00:28:46;4.60;;;1.30;;
18322;SDS011;9287;49.456;11.064;2023-04-12T00:31:14;3.83;;;1.20;;
18322;SDS011;9287;49.456;11.064;2023-04-12T00:33:42;3.83;;;1.30;;
18322;SDS011;9287;49.456;11.064;2023-04-12T00:36:09;1.80;;;0.90;;
18322;SDS011;9287;49.456;11.064;2023-04-12T00:38:39;4.23;;;1.40;;
18322;SDS011;9287;49.456;11.064;2023-04-12T00:41:07;1.87;;;1.20;;
18322;SDS011;9287;49.456;11.064;2023-04-12T00:43:35;1.77;;;1.20;;
18322;SDS011;9287;49.456;11.064;2023-04-12T00:46:03;3.87;;;1.20;;
18322;SDS011;9287;49.456;11.064;2023-04-12T00:48:32;5.10;;;1.33;;
18322;SDS011;9287;49.456;11.064;2023-04-12T00:51:00;5.03;;;1.33;;
18322;SDS011;9287;49.456;11.064;2023-04-12T00:53:29;3.03;;;1.13;;
18322;SDS011;9287;49.456;11.064;2023-04-12T00:55:58;3.33;;;1.30;;
18322;SDS011;9287;49.456;11.064;2023-04-12T00:58:26;2.87;;;0.90;;
18322;SDS011;9287;49.456;11.064;2023-04-12T01:00:54;3.30;;;1.17;;
18322;SDS011;9287;49.456;11.064;2023-04-12T01:03:22;4.60;;;1.33;;
18322;SDS011;9287;49.456;11.064;2023-04-12T01:05:56;3.70;;;1.10;;
18322;SDS011;9287;49.456;11.064;2023-04-12T01:08:32;4.00;;;1.30;;
18322;SDS011;9287;49.456;11.064;2023-04-12T01:11:14;2.53;;;1.00;;
18322;SDS011;9287;49.456;11.064;2023-04-12T01:13:54;3.23;;;1.20;;
18322;SDS011;9287;49.456;11.064;2023-04-12T01:16:30;2.43;;;1.30;;
18322;SDS011;9287;49.456;11.064;2023-04-12T01:19:03;2.33;;;1.10;;
18322;SDS011;9287;49.456;11.064;2023-04-12T01:21:40;3.93;;;1.30;;
18322;SDS011;9287;49.456;11.064;2023-04-12T01:24:21;2.87;;;1.17;;
18322;SDS011;9287;49.456;11.064;2023-04-12T01:26:55;4.07;;;1.50;;
18322;SDS011;9287;49.456;11.064;2023-04-12T01:29:28;2.80;;;1.40;;
18322;SDS011;9287;49.456;11.064;2023-04-12T01:31:58;2.93;;;1.10;;
18322;SDS011;9287;49.456;11.064;2023-04-12T01:34:27;3.37;;;1.30;;
18322;SDS011;9287;49.456;11.064;2023-04-12T01:36:59;4.07;;;1.13;;
18322;SDS011;9287;49.456;11.064;2023-04-12T01:39:29;4.80;;;1.30;;
18322;SDS011;9287;49.456;11.064;2023-04-12T01:41:58;3.93;;;1.30;;
18322;SDS011;9287;49.456;11.064;2023-04-12T01:44:26;4.20;;;1.10;;
18322;SDS011;9287;49.456;11.064;2023-04-12T01:46:55;3.70;;;1.20;;
18322;SDS011;9287;49.456;11.064;2023-04-12T01:49:23;4.03;;;1.00;;
18322;SDS011;9287;49.456;11.064;2023-04-12T01:52:00;3.50;;;1.17;;
18322;SDS011;9287;49.456;11.064;2023-04-12T01:54:33;4.60;;;1.30;;
18322;SDS011;9287;49.456;11.064;2023-04-12T01:57:04;2.10;;;1.10;;
18322;SDS011;9287;49.456;11.064;2023-04-12T01:59:35;3.53;;;1.50;;
18322;SDS011;9287;49.456;11.064;2023-04-12T02:02:07;4.80;;;1.20;;
18322;SDS011;9287;49.456;11.064;2023-04-12T02:04:36;3.87;;;1.03;;
18322;SDS011;9287;49.456;11.064;2023-04-12T02:07:05;3.00;;;1.20;;
18322;SDS011;9287;49.456;11.064;2023-04-12T02:09:35;4.47;;;1.27;;
18322;SDS011;9287;49.456;11.064;2023-04-12T02:12:04;3.47;;;1.10;;
18322;SDS011;9287;49.456;11.064;2023-04-12T02:14:32;3.00;;;1.10;;
18322;SDS011;9287;49.456;11.064;2023-04-12T02:17:01;5.33;;;1.47;;
18322;SDS011;9287;49.456;11.064;2023-04-12T02:19:31;1.83;;;1.10;;
18322;SDS011;9287;49.456;11.064;2023-04-12T02:21:58;2.47;;;1.13;;
18322;SDS011;9287;49.456;11.064;2023-04-12T02:24:27;2.00;;;0.97;;
18322;SDS011;9287;49.456;11.064;2023-04-12T02:26:55;4.33;;;1.20;;
18322;SDS011;9287;49.456;11.064;2023-04-12T02:29:24;2.37;;;0.93;;
18322;SDS011;9287;49.456;11.064;2023-04-12T02:31:52;3.07;;;1.13;;
18322;SDS011;9287;49.456;11.064;2023-04-12T02:34:20;6.93;;;1.10;;
18322;SDS011;9287;49.456;11.064;2023-04-12T02:36:49;2.63;;;0.90;;
18322;SDS011;9287;49.456;11.064;2023-04-12T02:39:17;4.13;;;1.17;;
18322;SDS011;9287;49.456;11.064;2023-04-12T02:41:47;4.70;;;1.10;;
18322;SDS011;9287;49.456;11.064;2023-04-12T02:44:15;1.57;;;1.00;;
18322;SDS011;9287;49.456;11.064;2023-04-12T02:46:42;1.77;;;1.00;;
18322;SDS011;9287;49.456;11.064;2023-04-12T02:49:10;2.63;;;0.97;;
18322;SDS011;9287;49.456;11.064;2023-04-12T02:51:38;2.70;;;0.90;;
18322;SDS011;9287;49.456;11.064;2023-04-12T02:54:08;2.37;;;1.10;;
18322;SDS011;9287;49.456;11.064;2023-04-12T02:56:35;5.03;;;1.33;;
18322;SDS011;9287;49.456;11.064;2023-04-12T02:59:03;1.93;;;1.10;;
18322;SDS011;9287;49.456;11.064;2023-04-12T03:01:32;3.97;;;1.00;;
18322;SDS011;9287;49.456;11.064;2023-04-12T03:04:00;5.57;;;1.13;;
18322;SDS011;9287;49.456;11.064;2023-04-12T03:06:28;3.63;;;1.23;;
18322;SDS011;9287;49.456;11.064;2023-04-12T03:08:57;3.27;;;1.20;;
18322;SDS011;9287;49.456;11.064;2023-04-12T03:11:26;2.33;;;1.17;;
18322;SDS011;9287;49.456;11.064;2023-04-12T03:13:54;3.83;;;1.37;;
18322;SDS011;9287;49.456;11.064;2023-04-12T03:16:23;4.07;;;1.33;;
18322;SDS011;9287;49.456;11.064;2023-04-12T03:18:55;1.50;;;1.00;;
18322;SDS011;9287;49.456;11.064;2023-04-12T03:21:23;3.70;;;1.00;;
18322;SDS011;9287;49.456;11.064;2023-04-12T03:23:51;3.10;;;0.93;;
18322;SDS011;9287;49.456;11.064;2023-04-12T03:26:18;3.57;;;1.00;;
18322;SDS011;9287;49.456;11.064;2023-04-12T03:28:47;6.20;;;1.73;;
18322;SDS011;9287;49.456;11.064;2023-04-12T03:31:15;2.60;;;1.10;;
18322;SDS011;9287;49.456;11.064;2023-04-12T03:33:46;1.90;;;1.10;;
18322;SDS011;9287;49.456;11.064;2023-04-12T03:36:14;4.60;;;1.10;;
18322;SDS011;9287;49.456;11.064;2023-04-12T03:38:41;4.20;;;1.20;;
18322;SDS011;9287;49.456;11.064;2023-04-12T03:41:09;3.57;;;1.23;;
18322;SDS011;9287;49.456;11.064;2023-04-12T03:43:37;1.87;;;1.30;;
18322;SDS011;9287;49.456;11.064;2023-04-12T03:46:07;3.73;;;1.40;;
18322;SDS011;9287;49.456;11.064;2023-04-12T03:48:35;5.63;;;1.60;;
18322;SDS011;9287;49.456;11.064;2023-04-12T03:51:03;2.20;;;1.30;;
18322;SDS011;9287;49.456;11.064;2023-04-12T03:53:33;3.40;;;1.50;;
18322;SDS011;9287;49.456;11.064;2023-04-12T03:56:01;3.27;;;1.43;;
18322;SDS011;9287;49.456;11.064;2023-04-12T03:58:28;3.40;;;1.60;;
18322;SDS011;9287;49.456;11.064;2023-04-12T04:00:56;6.23;;;1.40;;
18322;SDS011;9287;49.456;11.064;2023-04-12T04:03:27;2.93;;;1.40;;
18322;SDS011;9287;49.456;11.064;2023-04-12T04:05:55;2.07;;;1.17;;
18322;SDS011;9287;49.456;11.064;2023-04-12T04:08:23;4.10;;;1.30;;
18322;SDS011;9287;49.456;11.064;2023-04-12T04:10:51;3.93;;;1.20;;
18322;SDS011;9287;49.456;11.064;2023-04-12T04:13:19;1.93;;;1.30;;
18322;SDS011;9287;49.456;11.064;2023-04-12T04:15:49;4.27;;;1.27;;
18322;SDS011;9287;49.456;11.064;2023-04-12T04:18:18;4.23;;;1.37;;
18322;SDS011;9287;49.456;11.064;2023-04-12T04:20:47;4.03;;;1.57;;
18322;SDS011;9287;49.456;11.064;2023-04-12T04:23:15;3.67;;;1.40;;
18322;SDS011;9287;49.456;11.064;2023-04-12T04:25:43;3.83;;;1.53;;
18322;SDS011;9287;49.456;11.064;2023-04-12T04:28:11;2.03;;;1.30;;
18322;SDS011;9287;49.456;11.064;2023-04-12T04:30:41;5.47;;;1.40;;
18322;SDS011;9287;49.456;11.064;2023-04-12T04:33:11;3.77;;;1.33;;
18322;SDS011;9287;49.456;11.064;2023-04-12T04:35:41;5.60;;;1.53;;
18322;SDS011;9287;49.456;11.064;2023-04-12T04:38:10;4.73;;;1.43;;
18322;SDS011;9287;49.456;11.064;2023-04-12T04:40:38;5.17;;;1.50;;
18322;SDS011;9287;49.456;11.064;2023-04-12T04:43:06;3.83;;;1.77;;
18322;SDS011;9287;49.456;11.064;2023-04-12T04:45:34;6.57;;;1.73;;
18322;SDS011;9287;49.456;11.064;2023-04-12T04:48:02;2.63;;;1.83;;
18322;SDS011;9287;49.456;11.064;2023-04-12T04:50:30;2.70;;;1.80;;
18322;SDS011;9287;49.456;11.064;2023-04-12T04:52:58;6.83;;;1.97;;
18322;SDS011;9287;49.456;11.064;2023-04-12T04:55:28;3.37;;;1.60;;
18322;SDS011;9287;49.456;11.064;2023-04-12T04:57:56;3.60;;;1.63;;
18322;SDS011;9287;49.456;11.064;2023-04-12T05:00:24;2.30;;;1.40;;
18322;SDS011;9287;49.456;11.064;2023-04-12T05:02:51;4.30;;;2.13;;
18322;SDS011;9287;49.456;11.064;2023-04-12T05:05:19;5.33;;;2.00;;
18322;SDS011;9287;49.456;11.064;2023-04-12T05:07:48;4.47;;;1.87;;
18322;SDS011;9287;49.456;11.064;2023-04-12T05:10:16;4.13;;;1.70;;
18322;SDS011;9287;49.456;11.064;2023-04-12T05:12:45;6.47;;;2.13;;
18322;SDS011;9287;49.456;11.064;2023-04-12T05:15:13;4.40;;;2.37;;
18322;SDS011;9287;49.456;11.064;2023-04-12T05:17:41;6.70;;;1.80;;
18322;SDS011;9287;49.456;11.064;2023-04-12T05:20:09;3.93;;;1.53;;
18322;SDS011;9287;49.456;11.064;2023-04-12T05:22:37;4.07;;;1.60;;
18322;SDS011;9287;49.456;11.064;2023-04-12T05:25:06;2.97;;;1.70;;
18322;SDS011;9287;49.456;11.064;2023-04-12T05:27:34;3.63;;;1.77;;
18322;SDS011;9287;49.456;11.064;2023-04-12T05:30:05;3.73;;;1.67;;
18322;SDS011;9287;49.456;11.064;2023-04-12T05:32:34;5.30;;;1.90;;
18322;SDS011;9287;49.456;11.064;2023-04-12T05:35:02;4.87;;;2.17;;
18322;SDS011;9287;49.456;11.064;2023-04-12T05:37:30;5.57;;;1.70;;
18322;SDS011;9287;49.456;11.064;2023-04-12T05:39:58;5.13;;;1.60;;
18322;SDS011;9287;49.456;11.064;2023-04-12T05:42:26;3.47;;;1.53;;
18322;SDS011;9287;49.456;11.064;2023-04-12T05:44:54;4.20;;;1.20;;
18322;SDS011;9287;49.456;11.064;2023-04-12T05:47:24;5.10;;;1.63;;
18322;SDS011;9287;49.456;11.064;2023-04-12T05:49:52;4.77;;;1.70;;
18322;SDS011;9287;49.456;11.064;2023-04-12T05:52:20;2.83;;;1.80;;
18322;SDS011;9287;49.456;11.064;2023-04-12T05:54:48;3.23;;;1.80;;
18322;SDS011;9287;49.456;11.064;2023-04-12T05:57:17;4.80;;;1.90;;
18322;SDS011;9287;49.456;11.064;2023-04-12T05:59:45;2.80;;;1.80;;
18322;SDS011;9287;49.456;11.064;2023-04-12T06:02:12;3.97;;;2.20;;
18322;SDS011;9287;49.456;11.064;2023-04-12T06:04:42;6.50;;;1.97;;
18322;SDS011;9287;49.456;11.064;2023-04-12T06:07:16;4.33;;;1.70;;
18322;SDS011;9287;49.456;11.064;2023-04-12T06:09:45;4.70;;;1.83;;
18322;SDS011;9287;49.456;11.064;2023-04-12T06:12:15;3.30;;;1.83;;
18322;SDS011;9287;49.456;11.064;2023-04-12T06:14:44;2.20;;;1.80;;
18322;SDS011;9287;49.456;11.064;2023-04-12T06:17:12;5.30;;;1.90;;
18322;SDS011;9287;49.456;11.064;2023-04-12T06:19:39;2.57;;;1.90;;
18322;SDS011;9287;49.456;11.064;2023-04-12T06:22:09;4.27;;;2.10;;
18322;SDS011;9287;49.456;11.064;2023-04-12T06:24:36;3.60;;;2.03;;
18322;SDS011;9287;49.456;11.064;2023-04-12T06:27:04;3.30;;;1.60;;
18322;SDS011;9287;49.456;11.064;2023-04-12T06:29:32;2.93;;;1.90;;
18322;SDS011;9287;49.456;11.064;2023-04-12T06:32:00;5.73;;;2.00;;
18322;SDS011;9287;49.456;11.064;2023-04-12T06:34:27;4.27;;;2.00;;
18322;SDS011;9287;49.456;11.064;2023-04-12T06:36:57;6.40;;;2.00;;
18322;SDS011;9287;49.456;11.064;2023-04-12T06:39:27;4.67;;;2.10;;
18322;SDS011;9287;49.456;11.064;2023-04-12T06:41:54;4.40;;;2.33;;
18322;SDS011;9287;49.456;11.064;2023-04-12T06:44:24;8.27;;;2.30;;
18322;SDS011;9287;49.456;11.064;2023-04-12T06:46:53;3.43;;;2.10;;
18322;SDS011;9287;49.456;11.064;2023-04-12T06:49:21;6.60;;;2.13;;
18322;SDS011;9287;49.456;11.064;2023-04-12T06:51:49;2.23;;;1.80;;
18322;SDS011;9287;49.456;11.064;2023-04-12T06:54:16;3.40;;;2.00;;
18322;SDS011;9287;49.456;11.064;2023-04-12T06:56:46;3.83;;;2.00;;
18322;SDS011;9287;49.456;11.064;2023-04-12T06:59:14;3.63;;;2.00;;
18322;SDS011;9287;49.456;11.064;2023-04-12T07:01:41;2.13;;;1.47;;
18322;SDS011;9287;49.456;11.064;2023-04-12T07:04:10;3.30;;;1.83;;
18322;SDS011;9287;49.456;11.064;2023-04-12T07:06:38;3.07;;;1.83;;
18322;SDS011;9287;49.456;11.064;2023-04-12T07:09:06;1.83;;;1.63;;
18322;SDS011;9287;49.456;11.064;2023-04-12T07:11:34;3.00;;;1.93;;
18322;SDS011;9287;49.456;11.064;2023-04-12T07:14:03;2.77;;;1.83;;
18322;SDS011;9287;49.456;11.064;2023-04-12T07:16:31;1.97;;;1.50;;
18322;SDS011;9287;49.456;11.064;2023-04-12T07:18:59;1.93;;;1.60;;
18322;SDS011;9287;49.456;11.064;2023-04-12T07:21:27;2.93;;;2.43;;
18322;SDS011;9287;49.456;11.064;2023-04-12T07:23:55;3.33;;;2.10;;
18322;SDS011;9287;49.456;11.064;2023-04-12T07:26:22;2.83;;;1.90;;
18322;SDS011;9287;49.456;11.064;2023-04-12T07:28:51;2.57;;;2.37;;
18322;SDS011;9287;49.456;11.064;2023-04-12T07:31:21;2.77;;;2.50;;
18322;SDS011;9287;49.456;11.064;2023-04-12T07:33:49;5.87;;;3.17;;
18322;SDS011;9287;49.456;11.064;2023-04-12T07:36:17;3.50;;;2.43;;
18322;SDS011;9287;49.456;11.064;2023-04-12T07:38:47;4.07;;;2.97;;
18322;SDS011;9287;49.456;11.064;2023-04-12T07:41:20;4.33;;;2.87;;
18322;SDS011;9287;49.456;11.064;2023-04-12T07:43:48;3.77;;;2.90;;
18322;SDS011;9287;49.456;11.064;2023-04-12T07:46:16;3.90;;;3.07;;
18322;SDS011;9287;49.456;11.064;2023-04-12T07:48:45;3.03;;;2.73;;
18322;SDS011;9287;49.456;11.064;2023-04-12T07:51:13;6.20;;;3.10;;
18322;SDS011;9287;49.456;11.064;2023-04-12T07:53:40;3.83;;;2.80;;
18322;SDS011;9287;49.456;11.064;2023-04-12T07:56:13;3.77;;;2.63;;
18322;SDS011;9287;49.456;11.064;2023-04-12T07:58:41;5.37;;;3.23;;
18322;SDS011;9287;49.456;11.064;2023-04-12T08:01:10;3.20;;;2.90;;
18322;SDS011;9287;49.456;11.064;2023-04-12T08:03:38;3.30;;;3.00;;
18322;SDS011;9287;49.456;11.064;2023-04-12T08:06:10;3.50;;;3.07;;
18322;SDS011;9287;49.456;11.064;2023-04-12T08:08:38;3.73;;;2.70;;
18322;SDS011;9287;49.456;11.064;2023-04-12T08:11:06;3.17;;;2.67;;
18322;SDS011;9287;49.456;11.064;2023-04-12T08:13:34;2.83;;;2.63;;
18322;SDS011;9287;49.456;11.064;2023-04-12T08:16:02;2.50;;;2.07;;
18322;SDS011;9287;49.456;11.064;2023-04-12T08:18:30;3.77;;;2.50;;
18322;SDS011;9287;49.456;11.064;2023-04-12T08:20:57;3.67;;;2.33;;
18322;SDS011;9287;49.456;11.064;2023-04-12T08:23:26;2.63;;;2.43;;
18322;SDS011;9287;49.456;11.064;2023-04-12T08:25:54;2.30;;;2.10;;
18322;SDS011;9287;49.456;11.064;2023-04-12T08:28:28;1.80;;;1.70;;
18322;SDS011;9287;49.456;11.064;2023-04-12T08:30:56;3.17;;;2.30;;
18322;SDS011;9287;49.456;11.064;2023-04-12T08:33:24;2.30;;;2.07;;
18322;SDS011;9287;49.456;11.064;2023-04-12T08:35:52;2.10;;;1.90;;
18322;SDS011;9287;49.456;11.064;2023-04-12T08:38:21;2.23;;;2.03;;
18322;SDS011;9287;49.456;11.064;2023-04-12T08:41:10;1.80;;;1.70;;
18322;SDS011;9287;49.456;11.064;2023-04-12T08:43:39;2.00;;;1.90;;
18322;SDS011;9287;49.456;11.064;2023-04-12T08:46:09;2.30;;;2.00;;
18322;SDS011;9287;49.456;11.064;2023-04-12T08:48:38;1.53;;;1.40;;
18322;SDS011;9287;49.456;11.064;2023-04-12T08:51:08;1.47;;;1.37;;
18322;SDS011;9287;49.456;11.064;2023-04-12T08:53:39;3.00;;;1.40;;
18322;SDS011;9287;49.456;11.064;2023-04-12T08:56:07;1.43;;;1.33;;
18322;SDS011;9287;49.456;11.064;2023-04-12T08:58:38;3.50;;;1.90;;
18322;SDS011;9287;49.456;11.064;2023-04-12T09:01:09;1.53;;;1.40;;
18322;SDS011;9287;49.456;11.064;2023-04-12T09:03:39;1.63;;;1.37;;
18322;SDS011;9287;49.456;11.064;2023-04-12T09:06:07;1.57;;;1.43;;
18322;SDS011;9287;49.456;11.064;2023-04-12T09:08:35;1.70;;;1.60;;
18322;SDS011;9287;49.456;11.064;2023-04-12T09:11:14;1.87;;;1.67;;
18322;SDS011;9287;49.456;11.064;2023-04-12T09:13:48;1.97;;;1.87;;
18322;SDS011;9287;49.456;11.064;2023-04-12T09:16:16;2.03;;;1.73;;
18322;SDS011;9287;49.456;11.064;2023-04-12T09:18:48;1.53;;;1.43;;
18322;SDS011;9287;49.456;11.064;2023-04-12T09:21:17;2.43;;;1.77;;
18322;SDS011;9287;49.456;11.064;2023-04-12T09:23:47;1.70;;;1.60;;
18322;SDS011;9287;49.456;11.064;2023-04-12T09:26:30;1.50;;;1.40;;
18322;SDS011;9287;49.456;11.064;2023-04-12T09:28:57;2.67;;;1.40;;
18322;SDS011;9287;49.456;11.064;2023-04-12T09:31:26;1.93;;;1.70;;
18322;SDS011;9287;49.456;11.064;2023-04-12T09:33:56;1.10;;;1.00;;
18322;SDS011;9287;49.456;11.064;2023-04-12T09:36:36;2.10;;;1.30;;
18322;SDS011;9287;49.456;11.064;2023-04-12T09:39:05;1.40;;;1.20;;
18322;SDS011;9287;49.456;11.064;2023-04-12T09:41:35;1.83;;;1.53;;
18322;SDS011;9287;49.456;11.064;2023-04-12T09:44:03;2.40;;;1.70;;
18322;SDS011;9287;49.456;11.064;2023-04-12T09:46:30;1.50;;;1.40;;
18322;SDS011;9287;49.456;11.064;2023-04-12T09:48:59;2.20;;;1.43;;
18322;SDS011;9287;49.456;11.064;2023-04-12T09:51:29;1.30;;;1.20;;
18322;SDS011;9287;49.456;11.064;2023-04-12T09:53:58;1.20;;;1.10;;
18322;SDS011;9287;49.456;11.064;2023-04-12T09:56:27;1.30;;;1.20;;
18322;SDS011;9287;49.456;11.064;2023-04-12T09:59:00;2.03;;;1.50;;
18322;SDS011;9287;49.456;11.064;2023-04-12T10:01:32;1.83;;;1.50;;
18322;SDS011;9287;49.456;11.064;2023-04-12T10:04:01;4.03;;;1.60;;
18322;SDS011;9287;49.456;11.064;2023-04-12T10:06:31;3.70;;;1.77;;
18322;SDS011;9287;49.456;11.064;2023-04-12T10:08:59;1.50;;;1.40;;
18322;SDS011;9287;49.456;11.064;2023-04-12T10:11:30;1.63;;;1.53;;
18322;SDS011;9287;49.456;11.064;2023-04-12T10:14:01;2.33;;;2.13;;
18322;SDS011;9287;49.456;11.064;2023-04-12T10:16:29;3.30;;;2.10;;
18322;SDS011;9287;49.456;11.064;2023-04-12T10:18:59;3.63;;;2.93;;
18322;SDS011;9287;49.456;11.064;2023-04-12T10:21:29;3.83;;;2.63;;
18322;SDS011;9287;49.456;11.064;2023-04-12T10:23:57;3.37;;;3.07;;
18322;SDS011;9287;49.456;11.064;2023-04-12T10:26:25;2.87;;;2.67;;
18322;SDS011;9287;49.456;11.064;2023-04-12T10:31:56;2.87;;;2.57;;
18322;SDS011;9287;49.456;11.064;2023-04-12T10:34:28;2.87;;;2.67;;
18322;SDS011;9287;49.456;11.064;2023-04-12T10:36:57;1.87;;;1.77;;
18322;SDS011;9287;49.456;11.064;2023-04-12T10:39:38;1.63;;;1.50;;
18322;SDS011;9287;49.456;11.064;2023-04-12T10:42:14;3.03;;;2.10;;
18322;SDS011;9287;49.456;11.064;2023-04-12T10:44:48;1.80;;;1.70;;
18322;SDS011;9287;49.456;11.064;2023-04-12T10:50:19;1.60;;;1.50;;
18322;SDS011;9287;49.456;11.064;2023-04-12T10:55:50;1.87;;;1.67;;
18322;SDS011;9287;49.456;11.064;2023-04-12T11:01:23;4.23;;;1.30;;
18322;SDS011;9287;49.456;11.064;2023-04-12T11:04:07;1.70;;;1.00;;
18322;SDS011;9287;49.456;11.064;2023-04-12T11:06:46;1.87;;;1.37;;
18322;SDS011;9287;49.456;11.064;2023-04-12T11:09:18;2.10;;;1.17;;
18322;SDS011;9287;49.456;11.064;2023-04-12T11:11:47;1.30;;;1.17;;
18322;SDS011;9287;49.456;11.064;2023-04-12T11:14:15;2.10;;;1.43;;
18322;SDS011;9287;49.456;11.064;2023-04-12T11:19:54;2.27;;;1.07;;
18322;SDS011;9287;49.456;11.064;2023-04-12T11:22:28;1.20;;;1.10;;
18322;SDS011;9287;49.456;11.064;2023-04-12T11:24:58;3.00;;;1.30;;
18322;SDS011;9287;49.456;11.064;2023-04-12T11:27:28;1.60;;;1.20;;
18322;SDS011;9287;49.456;11.064;2023-04-12T11:29:57;1.43;;;1.30;;
18322;SDS011;9287;49.456;11.064;2023-04-12T11:32:26;3.53;;;1.40;;
18322;SDS011;9287;49.456;11.064;2023-04-12T11:34:56;1.83;;;1.57;;
18322;SDS011;9287;49.456;11.064;2023-04-12T11:37:25;1.73;;;1.37;;
18322;SDS011;9287;49.456;11.064;2023-04-12T11:39:54;1.83;;;1.60;;
18322;SDS011;9287;49.456;11.064;2023-04-12T11:42:24;2.27;;;1.60;;
18322;SDS011;9287;49.456;11.064;2023-04-12T11:44:54;1.77;;;1.63;;
18322;SDS011;9287;49.456;11.064;2023-04-12T11:47:28;2.93;;;1.87;;
18322;SDS011;9287;49.456;11.064;2023-04-12T11:49:57;2.03;;;1.93;;
18322;SDS011;9287;49.456;11.064;2023-04-12T11:52:29;2.57;;;2.30;;
18322;SDS011;9287;49.456;11.064;2023-04-12T11:54:59;2.20;;;1.60;;
18322;SDS011;9287;49.456;11.064;2023-04-12T11:57:30;2.47;;;1.70;;
18322;SDS011;9287;49.456;11.064;2023-04-12T11:59:58;1.77;;;1.67;;
18322;SDS011;9287;49.456;11.064;2023-04-12T12:02:26;1.40;;;1.30;;
18322;SDS011;9287;49.456;11.064;2023-04-12T12:05:01;2.17;;;2.07;;
18322;SDS011;9287;49.456;11.064;2023-04-12T12:07:30;4.20;;;2.30;;
18322;SDS011;9287;49.456;11.064;2023-04-12T12:09:58;4.33;;;2.40;;
18322;SDS011;9287;49.456;11.064;2023-04-12T12:12:27;2.97;;;1.77;;
18322;SDS011;9287;49.456;11.064;2023-04-12T12:14:57;2.47;;;2.07;;
18322;SDS011;9287;49.456;11.064;2023-04-12T12:17:26;2.00;;;1.70;;
18322;SDS011;9287;49.456;11.064;2023-04-12T12:19:55;4.53;;;2.63;;
18322;SDS011;9287;49.456;11.064;2023-04-12T12:22:25;2.37;;;1.90;;
18322;SDS011;9287;49.456;11.064;2023-04-12T12:24:54;2.63;;;1.70;;
18322;SDS011;9287;49.456;11.064;2023-04-12T12:27:23;2.00;;;1.53;;
18322;SDS011;9287;49.456;11.064;2023-04-12T12:30:00;2.63;;;1.70;;
18322;SDS011;9287;49.456;11.064;2023-04-12T12:32:31;2.53;;;1.63;;
18322;SDS011;9287;49.456;11.064;2023-04-12T12:35:00;2.23;;;1.77;;
18322;SDS011;9287;49.456;11.064;2023-04-12T12:37:29;1.93;;;1.60;;
18322;SDS011;9287;49.456;11.064;2023-04-12T12:40:00;2.37;;;1.97;;
18322;SDS011;9287;49.456;11.064;2023-04-12T12:42:43;2.30;;;1.90;;
18322;SDS011;9287;49.456;11.064;2023-04-12T12:45:12;2.40;;;2.20;;
18322;SDS011;9287;49.456;11.064;2023-04-12T12:47:44;3.10;;;2.00;;
18322;SDS011;9287;49.456;11.064;2023-04-12T12:50:12;2.87;;;2.07;;
18322;SDS011;9287;49.456;11.064;2023-04-12T12:52:44;2.10;;;1.90;;
18322;SDS011;9287;49.456;11.064;2023-04-12T12:55:12;3.30;;;1.63;;
18322;SDS011;9287;49.456;11.064;2023-04-12T12:57:41;3.17;;;2.13;;
18322;SDS011;9287;49.456;11.064;2023-04-12T13:00:27;2.27;;;2.07;;
18322;SDS011;9287;49.456;11.064;2023-04-12T13:02:56;2.00;;;1.53;;
18322;SDS011;9287;49.456;11.064;2023-04-12T13:05:25;3.37;;;2.20;;
18322;SDS011;9287;49.456;11.064;2023-04-12T13:07:54;1.87;;;1.70;;
18322;SDS011;9287;49.456;11.064;2023-04-12T13:10:22;2.57;;;2.00;;
18322;SDS011;9287;49.456;11.064;2023-04-12T13:12:51;1.77;;;1.67;;
18322;SDS011;9287;49.456;11.064;2023-04-12T13:15:19;3.93;;;2.30;;
18322;SDS011;9287;49.456;11.064;2023-04-12T13:17:50;3.17;;;2.50;;
18322;SDS011;9287;49.456;11.064;2023-04-12T13:20:18;2.90;;;2.60;;
18322;SDS011;9287;49.456;11.064;2023-04-12T13:22:46;2.30;;;2.10;;
18322;SDS011;9287;49.456;11.064;2023-04-12T13:25:16;2.83;;;2.63;;
18322;SDS011;9287;49.456;11.064;2023-04-12T13:27:45;2.63;;;2.43;;
18322;SDS011;9287;49.456;11.064;2023-04-12T13:30:14;3.90;;;2.20;;
18322;SDS011;9287;49.456;11.064;2023-04-12T13:32:41;2.73;;;2.47;;
18322;SDS011;9287;49.456;11.064;2023-04-12T13:35:10;2.73;;;2.47;;
18322;SDS011;9287;49.456;11.064;2023-04-12T13:37:38;2.43;;;2.23;;
18322;SDS011;9287;49.456;11.064;2023-04-12T13:40:06;2.70;;;2.23;;
18322;SDS011;9287;49.456;11.064;2023-04-12T13:42:36;2.40;;;2.20;;
18322;SDS011;9287;49.456;11.064;2023-04-12T13:45:04;2.93;;;2.73;;
18322;SDS011;9287;49.456;11.064;2023-04-12T13:47:32;2.93;;;2.13;;
18322;SDS011;9287;49.456;11.064;2023-04-12T13:50:00;2.90;;;2.43;;
18322;SDS011;9287;49.456;11.064;2023-04-12T13:52:28;3.73;;;2.50;;
18322;SDS011;9287;49.456;11.064;2023-04-12T13:54:56;2.47;;;2.20;;
18322;SDS011;9287;49.456;11.064;2023-04-12T13:57:24;2.07;;;1.97;;
18322;SDS011;9287;49.456;11.064;2023-04-12T13:59:53;4.27;;;2.27;;
18322;SDS011;9287;49.456;11.064;2023-04-12T14:02:21;2.90;;;2.47;;
18322;SDS011;9287;49.456;11.064;2023-04-12T14:04:49;2.90;;;2.27;;
18322;SDS011;9287;49.456;11.064;2023-04-12T14:07:18;2.30;;;2.13;;
18322;SDS011;9287;49.456;11.064;2023-04-12T14:09:46;2.93;;;1.63;;
18322;SDS011;9287;49.456;11.064;2023-04-12T14:12:14;2.37;;;2.17;;
18322;SDS011;9287;49.456;11.064;2023-04-12T14:14:42;2.47;;;2.23;;
18322;SDS011;9287;49.456;11.064;2023-04-12T14:17:11;2.50;;;2.27;;
18322;SDS011;9287;49.456;11.064;2023-04-12T14:19:39;2.33;;;1.70;;
18322;SDS011;9287;49.456;11.064;2023-04-12T14:22:08;1.90;;;1.80;;
18322;SDS011;9287;49.456;11.064;2023-04-12T14:24:36;2.70;;;2.20;;
18322;SDS011;9287;49.456;11.064;2023-04-12T14:27:05;2.60;;;1.93;;
18322;SDS011;9287;49.456;11.064;2023-04-12T14:29:33;5.00;;;2.03;;
18322;SDS011;9287;49.456;11.064;2023-04-12T14:32:00;3.73;;;2.30;;
18322;SDS011;9287;49.456;11.064;2023-04-12T14:34:29;2.80;;;2.20;;
18322;SDS011;9287;49.456;11.064;2023-04-12T14:36:57;2.80;;;2.07;;
18322;SDS011;9287;49.456;11.064;2023-04-12T14:39:25;3.60;;;2.07;;
18322;SDS011;9287;49.456;11.064;2023-04-12T14:41:53;3.07;;;2.53;;
18322;SDS011;9287;49.456;11.064;2023-04-12T14:44:22;2.97;;;2.67;;
18322;SDS011;9287;49.456;11.064;2023-04-12T14:46:51;3.97;;;2.50;;
18322;SDS011;9287;49.456;11.064;2023-04-12T14:49:19;4.57;;;3.10;;
18322;SDS011;9287;49.456;11.064;2023-04-12T14:51:48;7.70;;;3.07;;
18322;SDS011;9287;49.456;11.064;2023-04-12T14:54:16;4.50;;;2.60;;
18322;SDS011;9287;49.456;11.064;2023-04-12T14:56:43;4.03;;;2.20;;
18322;SDS011;9287;49.456;11.064;2023-04-12T14:59:20;1.80;;;1.60;;
18322;SDS011;9287;49.456;11.064;2023-04-12T15:01:47;1.47;;;1.30;;
18322;SDS011;9287;49.456;11.064;2023-04-12T15:04:17;2.10;;;1.50;;
18322;SDS011;9287;49.456;11.064;2023-04-12T15:06:45;1.93;;;1.53;;
18322;SDS011;9287;49.456;11.064;2023-04-12T15:09:14;1.73;;;1.60;;
18322;SDS011;9287;49.456;11.064;2023-04-12T15:11:42;2.20;;;1.30;;
18322;SDS011;9287;49.456;11.064;2023-04-12T15:14:12;1.67;;;1.30;;
18322;SDS011;9287;49.456;11.064;2023-04-12T15:16:43;1.13;;;1.00;;